Time;durP1;ratioP1;P1;durP2;ratioP2;P2;SDS_P1;SDS_P2;PMS_P1;PMS_P2;Temp;Humidity;BMP_temperature;BMP_pressure;BME280_temperature;BME280_humidity;BME280_pressure;Samples;Min_cycle;Max_cycle;Signal;HPM_P1;HPM_P2
2022/01/16 00:04:38;;;;;;;16.80;12.97;;;3.00;99.90;;;;;;5034682;28;20188;-77
2022/01/16 00:07:04;;;;;;;18.90;14.97;;;3.00;99.90;;;;;;5032834;28;20584;-77
2022/01/16 00:09:35;;;;;;;20.30;15.17;;;2.90;99.90;;;;;;5034463;28;20556;-76
2022/01/16 00:12:04;;;;;;;17.30;13.07;;;3.00;99.90;;;;;;5033103;28;20176;-77
2022/01/16 00:14:30;;;;;;;19.17;13.93;;;2.90;99.90;;;;;;5032767;28;20184;-77
2022/01/16 00:16:56;;;;;;;18.87;13.63;;;2.90;99.90;;;;;;5034817;28;20200;-77
2022/01/16 00:19:22;;;;;;;16.70;13.13;;;2.90;99.90;;;;;;5033522;28;20590;-77
2022/01/16 00:21:47;;;;;;;17.33;13.33;;;2.90;99.90;;;;;;5034646;28;20223;-77
2022/01/16 00:24:13;;;;;;;18.07;12.57;;;2.90;99.90;;;;;;5034514;28;20180;-77
2022/01/16 00:26:40;;;;;;;18.53;14.07;;;2.90;99.90;;;;;;5034994;28;20258;-77
2022/01/16 00:29:07;;;;;;;19.17;13.33;;;2.90;99.90;;;;;;5034544;28;20176;-77
2022/01/16 00:31:37;;;;;;;19.50;14.30;;;2.90;99.90;;;;;;5034051;28;20223;-77
2022/01/16 00:34:04;;;;;;;18.17;13.97;;;2.90;99.90;;;;;;5032692;28;20218;-77
2022/01/16 00:36:30;;;;;;;19.17;13.93;;;2.90;99.90;;;;;;5032603;28;20666;-77
2022/01/16 00:38:57;;;;;;;18.80;14.00;;;2.90;99.90;;;;;;5033021;28;20230;-77
2022/01/16 00:41:23;;;;;;;16.83;13.17;;;2.90;99.90;;;;;;5032281;28;20208;-77
2022/01/16 00:43:50;;;;;;;19.30;13.33;;;2.90;99.90;;;;;;5033313;28;20255;-77
2022/01/16 00:46:16;;;;;;;18.83;13.60;;;2.90;99.90;;;;;;5032370;28;20200;-77
2022/01/16 00:48:42;;;;;;;18.17;14.33;;;2.90;99.90;;;;;;5034278;28;20262;-77
2022/01/16 00:51:08;;;;;;;20.57;15.20;;;2.90;99.90;;;;;;5038046;28;20546;-77
2022/01/16 00:53:34;;;;;;;19.93;14.70;;;2.90;99.90;;;;;;5037028;28;20180;-78
2022/01/16 00:55:59;;;;;;;19.33;13.63;;;2.90;99.90;;;;;;5038347;28;20180;-77
2022/01/16 00:58:25;;;;;;;22.27;15.27;;;2.90;99.90;;;;;;5037142;28;20196;-77
2022/01/16 01:00:51;;;;;;;27.17;17.00;;;2.90;99.90;;;;;;5038261;28;20202;-77
2022/01/16 01:03:17;;;;;;;28.73;17.83;;;2.90;99.90;;;;;;5037001;28;20180;-77
2022/01/16 01:05:42;;;;;;;32.73;20.10;;;3.00;99.90;;;;;;5036843;28;20192;-76
2022/01/16 01:08:08;;;;;;;34.87;20.93;;;2.90;99.90;;;;;;5038666;28;20219;-77
2022/01/16 01:10:38;;;;;;;33.67;19.33;;;2.90;99.90;;;;;;5037061;28;20204;-77
2022/01/16 01:13:55;;;;;;;30.30;19.97;;;2.90;99.90;;;;;;5036901;28;20180;-77
2022/01/16 01:16:02;;;;;;;29.93;19.60;;;2.90;99.90;;;;;;5034550;28;20195;-77
2022/01/16 01:18:33;;;;;;;34.70;21.50;;;2.80;99.90;;;;;;5035887;28;20195;-77
2022/01/16 01:21:01;;;;;;;34.70;19.80;;;2.80;99.90;;;;;;5037680;28;20224;-77
2022/01/16 01:23:27;;;;;;;32.27;21.17;;;2.80;99.90;;;;;;5036709;28;20325;-77
2022/01/16 01:25:53;;;;;;;32.70;20.97;;;2.80;99.90;;;;;;5037312;28;20215;-78
2022/01/16 01:28:18;;;;;;;33.33;20.77;;;2.90;99.90;;;;;;5038253;28;20220;-77
2022/01/16 01:30:44;;;;;;;34.73;20.07;;;2.90;99.90;;;;;;5037864;28;20220;-77
2022/01/16 01:33:15;;;;;;;31.07;21.43;;;2.90;99.90;;;;;;5037671;28;20177;-77
2022/01/16 01:35:42;;;;;;;32.13;20.33;;;2.90;99.90;;;;;;5038143;28;20192;-76
2022/01/16 01:38:09;;;;;;;32.57;20.43;;;2.90;99.90;;;;;;5038292;28;20203;-77
2022/01/16 01:40:36;;;;;;;30.10;18.83;;;2.90;99.90;;;;;;5038265;28;20263;-76
2022/01/16 01:51:11;;;;;;;27.47;17.97;;;2.90;99.90;;;;;;5038379;28;20215;-77
2022/01/16 01:53:39;;;;;;;30.57;18.30;;;2.90;99.90;;;;;;5037609;28;20183;-77
2022/01/16 01:56:06;;;;;;;26.03;17.07;;;2.90;99.90;;;;;;5036736;28;20180;-77
2022/01/16 01:58:32;;;;;;;27.53;18.50;;;2.90;99.90;;;;;;5037049;28;20180;-77
2022/01/16 02:00:57;;;;;;;26.33;18.33;;;2.90;99.90;;;;;;5034950;28;20674;-77
2022/01/16 02:03:38;;;;;;;27.13;18.93;;;2.90;99.90;;;;;;5035571;28;20192;-77
2022/01/16 02:06:04;;;;;;;29.87;18.73;;;3.00;99.90;;;;;;5035466;28;20176;-77
2022/01/16 02:08:30;;;;;;;33.60;19.30;;;3.00;99.90;;;;;;5036755;28;20215;-77
2022/01/16 02:10:57;;;;;;;31.93;20.30;;;3.00;99.90;;;;;;5035944;28;20319;-77
2022/01/16 02:13:27;;;;;;;28.63;19.13;;;3.00;99.90;;;;;;5036036;28;20192;-77
2022/01/16 02:27:59;;;;;;;27.93;18.60;;;3.00;99.90;;;;;;5037945;28;20207;-77
2022/01/16 02:37:02;;;;;;;44.20;24.13;;;3.00;99.90;;;;;;5047515;28;20203;-82
2022/01/16 02:39:36;;;;;;;41.13;23.53;;;3.00;99.90;;;;;;5060466;28;20207;-82
2022/01/16 02:42:06;;;;;;;41.30;22.90;;;3.00;99.90;;;;;;5060431;28;20174;-82
2022/01/16 02:44:45;;;;;;;44.63;24.73;;;3.00;99.90;;;;;;5060247;28;20172;-83
2022/01/16 02:47:13;;;;;;;42.83;24.37;;;3.00;99.90;;;;;;5003041;28;20437;-81
2022/01/16 02:49:44;;;;;;;40.07;22.93;;;3.00;99.90;;;;;;5004009;28;20239;-81
2022/01/16 02:52:12;;;;;;;40.77;23.13;;;3.00;99.90;;;;;;5021814;28;20169;-81
2022/01/16 02:54:40;;;;;;;44.03;23.43;;;3.00;99.90;;;;;;5038955;28;20193;-82
2022/01/16 02:57:11;;;;;;;44.70;22.80;;;3.00;99.90;;;;;;5052882;28;20290;-81
2022/01/16 02:59:40;;;;;;;40.77;23.03;;;3.00;99.90;;;;;;5068388;28;20250;-81
2022/01/16 03:02:06;;;;;;;34.73;21.17;;;2.90;99.90;;;;;;5041161;28;20638;-81
2022/01/16 03:04:33;;;;;;;36.70;20.87;;;2.90;99.90;;;;;;5057209;28;20179;-82
2022/01/16 03:06:59;;;;;;;35.73;20.80;;;2.90;99.90;;;;;;5019424;28;20216;-81
2022/01/16 03:09:27;;;;;;;34.50;20.63;;;2.90;99.90;;;;;;5019133;28;20230;-81
2022/01/16 03:11:53;;;;;;;32.27;21.23;;;2.90;99.90;;;;;;5052652;28;20184;-82
2022/01/16 03:14:21;;;;;;;32.20;20.87;;;2.90;99.90;;;;;;5028707;28;20188;-82
2022/01/16 03:16:50;;;;;;;34.73;19.97;;;2.90;99.90;;;;;;5057703;28;20200;-82
2022/01/16 03:22:05;;;;;;;37.70;21.33;;;2.80;99.90;;;;;;5057466;28;20298;-80
2022/01/16 03:24:37;;;;;;;36.10;21.70;;;2.80;99.90;;;;;;5045729;28;20307;-80
2022/01/16 03:27:23;;;;;;;38.20;22.00;;;2.80;99.90;;;;;;5018854;28;20775;-79
2022/01/16 03:29:52;;;;;;;39.03;21.03;;;2.80;99.90;;;;;;5019298;28;20649;-81
2022/01/16 03:32:19;;;;;;;31.30;19.10;;;2.80;99.90;;;;;;5038041;28;20530;-80
2022/01/16 03:34:46;;;;;;;39.57;21.60;;;2.80;99.90;;;;;;5050338;28;20192;-80
2022/01/16 03:37:12;;;;;;;42.43;22.17;;;2.80;99.90;;;;;;5039846;28;20235;-80
2022/01/16 03:39:37;;;;;;;35.80;21.53;;;2.80;99.90;;;;;;5040461;28;20191;-81
2022/01/16 03:42:04;;;;;;;38.77;20.67;;;2.80;99.90;;;;;;5058017;28;20629;-81
2022/01/16 03:44:30;;;;;;;38.27;21.33;;;2.70;99.90;;;;;;5029379;28;20196;-80
2022/01/16 03:46:56;;;;;;;39.57;21.17;;;2.80;99.90;;;;;;5038296;28;20553;-81
2022/01/16 03:49:25;;;;;;;38.07;21.83;;;2.70;99.90;;;;;;5021372;28;20191;-82
2022/01/16 03:51:53;;;;;;;37.97;21.97;;;2.70;99.90;;;;;;5038493;28;20184;-82
2022/01/16 03:54:22;;;;;;;35.10;20.50;;;2.70;99.90;;;;;;5047666;28;20699;-81
2022/01/16 03:56:48;;;;;;;37.73;21.60;;;2.70;99.90;;;;;;5039727;28;20204;-82
2022/01/16 03:59:14;;;;;;;41.87;22.90;;;2.70;99.90;;;;;;5059016;28;20183;-80
2022/01/16 04:01:40;;;;;;;39.03;21.37;;;2.70;99.90;;;;;;5040964;28;20191;-81
2022/01/16 04:04:06;;;;;;;34.37;21.57;;;2.70;99.90;;;;;;5033614;28;20190;-82
2022/01/16 04:06:32;;;;;;;41.13;23.30;;;2.60;99.90;;;;;;5039256;28;20263;-82
2022/01/16 04:08:59;;;;;;;35.17;22.03;;;2.60;99.90;;;;;;5054526;28;20184;-81
2022/01/16 04:11:27;;;;;;;39.30;23.07;;;2.60;99.90;;;;;;5039814;28;20203;-82
2022/01/16 04:14:02;;;;;;;39.37;22.17;;;2.60;99.90;;;;;;5026383;28;20720;-81
2022/01/16 04:16:28;;;;;;;43.63;24.63;;;2.60;99.90;;;;;;5042525;28;21903;-82
2022/01/16 04:18:53;;;;;;;39.00;23.53;;;2.60;99.90;;;;;;5067406;28;20191;-81
2022/01/16 04:21:20;;;;;;;45.63;23.93;;;2.50;99.90;;;;;;5071741;28;20670;-81
2022/01/16 04:23:46;;;;;;;46.40;23.93;;;2.50;99.90;;;;;;5062229;28;20220;-81
2022/01/16 04:26:12;;;;;;;45.30;26.20;;;2.60;99.90;;;;;;5039705;28;20550;-81
2022/01/16 04:28:38;;;;;;;54.20;26.87;;;2.60;99.90;;;;;;5039949;28;20225;-80
2022/01/16 04:31:03;;;;;;;49.50;26.77;;;2.50;99.90;;;;;;5022794;28;20188;-81
2022/01/16 04:33:29;;;;;;;46.80;25.60;;;2.50;99.90;;;;;;5040552;28;20259;-82
2022/01/16 04:35:55;;;;;;;54.23;28.07;;;2.50;99.90;;;;;;5042000;28;20184;-82
2022/01/16 04:38:21;;;;;;;54.00;27.70;;;2.60;99.90;;;;;;5041363;28;20207;-81
2022/01/16 04:43:51;;;;;;;56.67;28.70;;;2.50;99.90;;;;;;5058731;28;20186;-82
2022/01/16 04:46:28;;;;;;;63.87;30.43;;;2.60;99.90;;;;;;5021920;28;20291;-82
2022/01/16 04:48:55;;;;;;;65.63;29.27;;;2.60;99.90;;;;;;5039736;28;20164;-81
2022/01/16 04:51:22;;;;;;;57.93;29.97;;;2.60;99.90;;;;;;5038958;28;20187;-82
2022/01/16 04:53:48;;;;;;;54.73;29.90;;;2.60;99.90;;;;;;5024879;28;20176;-82
2022/01/16 04:56:14;;;;;;;62.73;28.90;;;2.60;99.90;;;;;;5041798;28;20187;-82
2022/01/16 04:58:41;;;;;;;62.67;30.83;;;2.60;99.90;;;;;;5060182;28;20180;-81
2022/01/16 05:01:07;;;;;;;66.53;30.97;;;2.60;99.90;;;;;;5060218;28;20178;-81
2022/01/16 05:03:33;;;;;;;61.10;30.10;;;2.60;99.90;;;;;;5040384;28;20215;-82
2022/01/16 05:06:00;;;;;;;58.60;30.33;;;2.70;99.90;;;;;;5040175;28;20176;-81
2022/01/16 05:08:26;;;;;;;60.43;31.40;;;2.70;99.90;;;;;;5021965;28;20216;-80
2022/01/16 05:10:55;;;;;;;61.03;31.27;;;2.70;99.90;;;;;;5021769;28;20680;-81
2022/01/16 05:18:33;;;;;;;60.27;30.03;;;2.70;99.90;;;;;;5060625;28;20230;-82
2022/01/16 05:20:58;;;;;;;66.60;31.23;;;2.80;99.90;;;;;;5060445;28;20188;-81
2022/01/16 05:23:24;;;;;;;61.13;30.83;;;2.70;99.90;;;;;;5057915;28;20200;-80
2022/01/16 05:25:49;;;;;;;63.33;30.33;;;2.80;99.90;;;;;;5022403;28;20192;-80
2022/01/16 05:28:15;;;;;;;62.80;31.13;;;2.80;99.90;;;;;;5040000;28;20220;-80
2022/01/16 05:30:41;;;;;;;60.03;30.30;;;2.80;99.90;;;;;;5040715;28;20200;-80
2022/01/16 05:33:08;;;;;;;60.87;29.87;;;2.80;99.90;;;;;;5022367;28;20238;-80
2022/01/16 05:35:33;;;;;;;62.37;30.70;;;2.80;99.90;;;;;;5042160;28;20183;-80
2022/01/16 05:37:59;;;;;;;64.77;31.73;;;2.80;99.90;;;;;;5059770;28;20203;-81
2022/01/16 05:40:24;;;;;;;65.73;32.23;;;2.80;99.90;;;;;;5043354;28;20563;-81
2022/01/16 05:42:50;;;;;;;62.77;31.17;;;2.80;99.90;;;;;;5043042;28;20191;-80
2022/01/16 05:45:19;;;;;;;61.70;30.90;;;2.80;99.90;;;;;;5043436;28;20571;-80
2022/01/16 05:47:44;;;;;;;61.10;31.83;;;2.90;99.90;;;;;;5040813;28;20270;-81
2022/01/16 05:50:10;;;;;;;64.37;31.00;;;2.90;99.90;;;;;;5041712;28;20176;-80
2022/01/16 05:52:35;;;;;;;57.20;29.47;;;2.90;99.90;;;;;;5042073;28;20211;-81
2022/01/16 05:55:01;;;;;;;63.97;32.63;;;2.90;99.90;;;;;;5056495;28;20191;-80
2022/01/16 05:57:26;;;;;;;62.33;31.10;;;2.90;99.90;;;;;;5043459;28;20212;-79
2022/01/16 05:59:52;;;;;;;56.87;31.57;;;2.90;99.90;;;;;;5061841;28;20251;-79
2022/01/16 06:02:18;;;;;;;59.00;30.93;;;3.00;99.90;;;;;;5064048;28;20257;-80
2022/01/16 06:04:43;;;;;;;60.70;32.07;;;2.90;99.90;;;;;;5035247;28;20188;-80
2022/01/16 06:07:09;;;;;;;61.30;32.20;;;3.00;99.90;;;;;;5045498;28;20287;-81
2022/01/16 06:09:35;;;;;;;60.83;32.47;;;3.00;99.90;;;;;;5021977;28;20184;-80
2022/01/16 06:12:00;;;;;;;54.47;32.67;;;3.00;99.90;;;;;;5038561;28;20189;-80
2022/01/16 06:14:26;;;;;;;58.57;33.60;;;3.00;99.90;;;;;;5047463;28;20222;-80
2022/01/16 06:16:52;;;;;;;63.60;34.03;;;3.00;99.90;;;;;;5040603;28;20704;-81
2022/01/16 06:19:19;;;;;;;65.40;33.30;;;3.00;99.90;;;;;;5058738;28;20179;-80
2022/01/16 06:21:46;;;;;;;58.60;32.30;;;3.00;99.90;;;;;;5042090;28;20199;-80
2022/01/16 06:24:12;;;;;;;57.77;33.00;;;3.10;99.90;;;;;;5035964;28;20199;-82
2022/01/16 06:26:38;;;;;;;63.37;32.67;;;3.10;99.90;;;;;;5022177;28;20228;-82
2022/01/16 06:29:04;;;;;;;63.63;33.67;;;3.10;99.90;;;;;;5040504;28;20204;-82
2022/01/16 06:31:31;;;;;;;60.70;33.00;;;3.10;99.90;;;;;;5039349;28;20231;-81
2022/01/16 06:34:00;;;;;;;57.80;33.93;;;3.10;99.90;;;;;;5041028;28;20579;-82
2022/01/16 06:36:25;;;;;;;60.53;33.90;;;3.10;99.90;;;;;;5021803;28;20195;-81
2022/01/16 06:38:53;;;;;;;57.43;33.87;;;3.20;99.90;;;;;;5039779;28;20184;-81
2022/01/16 06:41:19;;;;;;;65.67;35.30;;;3.10;99.90;;;;;;5039425;28;20180;-81
2022/01/16 06:43:44;;;;;;;56.87;33.00;;;3.20;99.90;;;;;;5042146;28;20250;-80
2022/01/16 06:46:10;;;;;;;60.20;34.20;;;3.20;99.90;;;;;;5041366;28;20200;-80
2022/01/16 06:48:36;;;;;;;57.93;33.47;;;3.20;99.90;;;;;;5059257;28;20225;-81
2022/01/16 06:51:02;;;;;;;57.67;33.70;;;3.20;99.90;;;;;;5042037;28;20187;-80
2022/01/16 06:53:28;;;;;;;59.13;34.50;;;3.20;99.90;;;;;;5058856;28;20176;-81
2022/01/16 06:55:53;;;;;;;58.13;33.70;;;3.20;99.90;;;;;;5039369;28;20180;-80
2022/01/16 06:58:19;;;;;;;59.60;33.87;;;3.20;99.90;;;;;;5039644;28;20211;-80
2022/01/16 07:00:45;;;;;;;65.03;36.13;;;3.20;99.90;;;;;;5021402;28;20184;-81
2022/01/16 07:03:12;;;;;;;57.50;34.33;;;3.20;99.90;;;;;;5021708;28;20188;-80
2022/01/16 07:05:37;;;;;;;59.03;35.03;;;3.20;99.90;;;;;;5057264;28;20180;-80
2022/01/16 07:08:03;;;;;;;61.23;36.90;;;3.30;99.90;;;;;;5059014;28;20207;-80
2022/01/16 07:10:28;;;;;;;64.07;36.43;;;3.30;99.90;;;;;;5058996;28;20167;-80
2022/01/16 07:12:54;;;;;;;58.87;35.13;;;3.30;99.90;;;;;;5042186;28;20683;-80
2022/01/16 07:15:20;;;;;;;59.63;34.90;;;3.30;99.90;;;;;;5022428;28;20196;-81
2022/01/16 07:17:45;;;;;;;57.13;34.03;;;3.30;99.90;;;;;;5040662;28;20219;-81
2022/01/16 07:20:11;;;;;;;56.97;33.53;;;3.30;99.90;;;;;;5055599;28;20192;-81
2022/01/16 07:22:37;;;;;;;56.63;33.63;;;3.40;99.90;;;;;;5022764;28;20623;-82
2022/01/16 07:25:03;;;;;;;58.40;35.50;;;3.40;99.90;;;;;;5056066;28;20610;-80
2022/01/16 07:27:28;;;;;;;62.67;35.63;;;3.40;99.90;;;;;;5042129;28;20571;-81
2022/01/16 07:29:54;;;;;;;57.90;34.60;;;3.30;99.90;;;;;;5043368;28;20190;-79
2022/01/16 07:32:19;;;;;;;63.07;35.10;;;3.40;99.90;;;;;;5070986;28;20175;-81
2022/01/16 07:34:45;;;;;;;60.17;34.33;;;3.40;99.90;;;;;;5045588;28;20188;-80
2022/01/16 07:37:10;;;;;;;59.37;35.23;;;3.40;99.90;;;;;;5046774;28;20218;-81
2022/01/16 07:39:37;;;;;;;57.93;34.83;;;3.40;99.90;;;;;;5051120;28;20195;-81
2022/01/16 07:42:03;;;;;;;57.03;33.97;;;3.40;99.90;;;;;;5036049;28;20646;-81
2022/01/16 07:44:29;;;;;;;56.43;34.17;;;3.40;99.90;;;;;;5041819;28;20203;-81
2022/01/16 07:46:55;;;;;;;59.43;35.17;;;3.50;99.90;;;;;;5032306;28;20220;-80
2022/01/16 07:49:20;;;;;;;58.83;35.87;;;3.50;99.90;;;;;;5017430;28;20185;-81
2022/01/16 07:51:46;;;;;;;66.80;36.80;;;3.50;99.90;;;;;;5017662;28;20627;-81
2022/01/16 07:54:11;;;;;;;57.47;34.80;;;3.50;99.90;;;;;;5032215;28;20180;-79
2022/01/16 07:56:37;;;;;;;56.97;33.87;;;3.50;99.90;;;;;;5058893;28;20207;-81
2022/01/16 07:59:02;;;;;;;60.47;34.97;;;3.50;99.90;;;;;;5058368;28;20183;-80
2022/01/16 08:01:28;;;;;;;58.20;34.20;;;3.50;99.90;;;;;;5040388;28;20188;-79
2022/01/16 08:03:53;;;;;;;53.87;33.53;;;3.60;99.90;;;;;;5035887;28;20184;-81
2022/01/16 08:06:19;;;;;;;55.87;35.53;;;3.60;99.90;;;;;;5038078;28;20180;-80
2022/01/16 08:08:44;;;;;;;55.43;35.00;;;3.60;99.90;;;;;;5020346;28;20227;-79
2022/01/16 08:11:10;;;;;;;60.83;36.10;;;3.60;99.90;;;;;;5037983;28;20183;-79
2022/01/16 08:13:37;;;;;;;57.37;35.43;;;3.60;99.90;;;;;;5037583;28;20183;-78
2022/01/16 08:16:04;;;;;;;56.60;34.70;;;3.60;99.90;;;;;;5056835;28;20175;-78
2022/01/16 08:18:30;;;;;;;60.93;36.50;;;3.80;99.90;;;;;;5040582;28;20206;-79
2022/01/16 08:20:55;;;;;;;59.57;35.53;;;3.70;99.90;;;;;;5042802;28;20184;-79
2022/01/16 08:23:21;;;;;;;55.97;34.40;;;3.70;99.90;;;;;;5060286;28;20190;-78
2022/01/16 08:25:46;;;;;;;59.10;36.13;;;3.70;99.90;;;;;;5040959;28;20267;-78
2022/01/16 08:28:13;;;;;;;59.40;35.33;;;3.80;99.90;;;;;;5063005;22;20611;-91
2022/01/16 08:30:39;;;;;;;56.07;36.33;;;3.80;99.90;;;;;;5024251;28;20204;-91
2022/01/16 08:33:04;;;;;;;54.70;34.53;;;3.80;99.90;;;;;;5037229;28;20280;-91
2022/01/16 08:35:30;;;;;;;56.40;34.30;;;3.80;99.90;;;;;;5033682;28;20181;-91
2022/01/16 08:37:55;;;;;;;61.30;36.23;;;3.90;99.90;;;;;;5013490;28;20239;-91
2022/01/16 08:40:21;;;;;;;58.60;36.80;;;3.90;99.90;;;;;;5013034;28;20189;-91
2022/01/16 08:42:47;;;;;;;57.00;36.03;;;3.90;99.90;;;;;;5014059;28;20586;-91
2022/01/16 08:45:12;;;;;;;61.10;36.10;;;3.90;99.90;;;;;;5029445;28;20197;-91
2022/01/16 08:47:38;;;;;;;58.60;35.63;;;3.90;99.90;;;;;;5013829;28;20212;-91
2022/01/16 08:50:06;;;;;;;56.20;34.70;;;4.00;99.90;;;;;;5014281;28;20177;-91
2022/01/16 08:52:31;;;;;;;57.00;36.03;;;4.00;99.90;;;;;;5012537;28;20204;-92
2022/01/16 08:54:57;;;;;;;56.97;34.03;;;4.00;99.90;;;;;;5012706;28;20185;-91
2022/01/16 08:57:23;;;;;;;59.40;34.87;;;4.00;99.90;;;;;;5013263;28;20189;-90
2022/01/16 08:59:48;;;;;;;56.40;35.03;;;4.00;99.90;;;;;;5012615;28;20185;-90
2022/01/16 09:02:14;;;;;;;60.73;36.90;;;4.00;99.90;;;;;;5012591;28;20244;-91
2022/01/16 09:04:39;;;;;;;56.00;34.03;;;4.00;99.90;;;;;;5012212;28;20723;-90
2022/01/16 09:07:05;;;;;;;57.93;35.37;;;4.10;99.90;;;;;;5012052;28;20745;-91
2022/01/16 09:09:31;;;;;;;58.13;33.70;;;4.10;99.90;;;;;;5012488;28;20596;-91
2022/01/16 09:11:59;;;;;;;56.33;36.17;;;4.10;99.90;;;;;;5015187;28;20332;-91
2022/01/16 09:14:25;;;;;;;58.53;35.23;;;4.10;99.90;;;;;;5016084;28;20181;-91
2022/01/16 09:16:50;;;;;;;60.70;34.53;;;4.10;99.90;;;;;;5017494;28;20207;-92
2022/01/16 09:19:16;;;;;;;56.40;33.83;;;4.10;99.90;;;;;;5017794;28;20258;-91
2022/01/16 09:21:42;;;;;;;52.10;32.67;;;4.10;99.90;;;;;;5015869;28;20205;-91
2022/01/16 09:24:07;;;;;;;57.10;33.80;;;4.10;99.90;;;;;;5017431;28;20181;-91
2022/01/16 09:26:33;;;;;;;53.73;32.50;;;4.20;99.90;;;;;;5015914;28;20667;-90
2022/01/16 09:28:59;;;;;;;55.90;32.77;;;4.20;99.90;;;;;;5015605;28;20609;-91
2022/01/16 09:31:25;;;;;;;53.97;32.77;;;4.20;99.90;;;;;;5015947;28;20177;-92
2022/01/16 09:33:51;;;;;;;54.27;33.43;;;4.20;99.90;;;;;;5017019;28;20220;-91
2022/01/16 09:36:16;;;;;;;54.97;32.40;;;4.20;99.90;;;;;;5016955;28;20189;-92
2022/01/16 09:38:43;;;;;;;53.03;32.60;;;4.30;99.90;;;;;;5017877;28;20184;-92
2022/01/16 09:41:08;;;;;;;49.57;30.83;;;4.30;99.90;;;;;;5017852;28;20181;-93
2022/01/16 09:43:35;;;;;;;50.23;31.17;;;4.30;99.90;;;;;;5021836;28;20251;-93
2022/01/16 09:46:02;;;;;;;49.10;30.87;;;4.30;99.90;;;;;;5019118;28;20225;-93
2022/01/16 09:48:28;;;;;;;50.90;31.67;;;4.40;99.90;;;;;;5017569;28;20212;-94
2022/01/16 09:50:57;;;;;;;51.60;31.77;;;4.40;99.90;;;;;;5017027;28;20672;-93
2022/01/16 09:53:32;;;;;;;55.20;32.00;;;4.40;99.90;;;;;;5028051;28;20196;-92
2022/01/16 09:55:58;;;;;;;44.37;30.13;;;4.40;99.90;;;;;;5027884;28;20192;-93
2022/01/16 09:58:24;;;;;;;55.27;31.73;;;4.40;99.90;;;;;;5016228;28;20196;-93
2022/01/16 10:00:52;;;;;;;53.27;30.77;;;4.50;99.90;;;;;;5015595;28;20196;-93
2022/01/16 10:03:35;;;;;;;50.63;30.10;;;4.50;99.90;;;;;;5016253;28;20212;-93
2022/01/16 10:06:17;;;;;;;47.63;29.90;;;4.50;99.90;;;;;;5015560;28;20188;-92
2022/01/16 10:08:44;;;;;;;47.40;28.33;;;4.60;99.90;;;;;;5015228;28;20220;-93
2022/01/16 10:11:46;;;;;;;48.90;27.07;;;4.60;99.90;;;;;;5015544;28;20535;-92
2022/01/16 10:14:15;;;;;;;48.03;29.70;;;4.70;99.90;;;;;;5016970;28;20215;-92
2022/01/16 10:16:42;;;;;;;45.53;27.73;;;4.60;99.90;;;;;;5015221;28;20559;-92
2022/01/16 10:19:24;;;;;;;48.60;28.47;;;4.60;99.90;;;;;;5016777;28;20264;-93
2022/01/16 10:21:51;;;;;;;49.33;29.47;;;4.60;99.90;;;;;;5014765;28;20204;-93
2022/01/16 10:24:28;;;;;;;46.73;28.93;;;4.70;99.90;;;;;;5017248;28;20579;-93
2022/01/16 10:27:09;;;;;;;56.93;29.27;;;4.60;99.90;;;;;;5014959;28;20208;-92
2022/01/16 10:29:43;;;;;;;45.43;27.17;;;4.60;99.90;;;;;;5016434;28;20248;-93
2022/01/16 10:32:27;;;;;;;50.07;28.03;;;4.70;99.90;;;;;;5016988;28;20207;-93
2022/01/16 10:35:06;;;;;;;46.23;27.80;;;4.60;99.90;;;;;;5015102;28;20165;-93
2022/01/16 10:37:33;;;;;;;47.57;27.70;;;4.80;99.90;;;;;;5015740;28;20199;-92
2022/01/16 10:40:10;;;;;;;46.07;28.20;;;4.70;99.90;;;;;;5015105;28;20189;-92
2022/01/16 10:42:39;;;;;;;49.77;29.00;;;4.70;99.90;;;;;;4995153;28;20205;-92
2022/01/16 10:45:17;;;;;;;47.40;28.20;;;4.80;99.90;;;;;;4996525;28;20196;-92
2022/01/16 10:47:51;;;;;;;50.90;29.10;;;4.80;99.90;;;;;;4999185;28;20201;-92
2022/01/16 10:50:31;;;;;;;46.17;28.33;;;4.80;99.90;;;;;;4997661;28;20229;-92
2022/01/16 10:53:07;;;;;;;49.00;29.17;;;4.80;99.90;;;;;;4999745;28;20229;-92
2022/01/16 10:55:38;;;;;;;51.93;29.17;;;4.80;99.90;;;;;;5021053;28;20193;-93
2022/01/16 10:58:28;;;;;;;50.90;29.00;;;4.80;99.90;;;;;;5040461;28;20249;-94
2022/01/16 11:01:02;;;;;;;51.23;29.03;;;4.80;99.90;;;;;;5022909;28;20173;-93
2022/01/16 11:03:36;;;;;;;53.90;30.10;;;4.80;99.90;;;;;;5021921;28;20276;-93
2022/01/16 11:06:03;;;;;;;47.50;28.17;;;4.90;99.90;;;;;;5026256;28;20170;-93
2022/01/16 11:08:29;;;;;;;58.70;30.13;;;4.80;99.90;;;;;;5020404;28;20244;-93
2022/01/16 11:10:58;;;;;;;51.47;28.67;;;4.90;99.90;;;;;;5018252;28;20651;-93
2022/01/16 11:13:30;;;;;;;61.40;30.87;;;4.90;99.90;;;;;;5019563;28;20197;-93
2022/01/16 11:16:03;;;;;;;51.47;30.67;;;5.00;99.90;;;;;;5018722;28;20177;-93
2022/01/16 11:18:29;;;;;;;54.77;30.90;;;5.20;99.90;;;;;;5017078;28;20180;-93
2022/01/16 11:23:32;;;;;;;55.90;30.53;;;5.00;99.90;;;;;;5020681;28;20311;-93
2022/01/16 11:26:07;;;;;;;57.63;30.97;;;5.00;99.90;;;;;;5019813;28;20185;-93
2022/01/16 11:28:33;;;;;;;54.97;31.07;;;5.00;99.90;;;;;;5021161;28;20216;-93
2022/01/16 11:31:05;;;;;;;61.47;32.70;;;5.10;99.90;;;;;;5020354;28;20205;-93
2022/01/16 11:33:33;;;;;;;64.00;32.37;;;5.20;99.90;;;;;;5020342;28;20197;-93
2022/01/16 11:36:03;;;;;;;67.53;34.20;;;5.10;99.90;;;;;;5018648;28;20177;-93
2022/01/16 11:38:32;;;;;;;60.93;31.73;;;5.10;99.90;;;;;;5019254;28;20197;-93
2022/01/16 11:41:12;;;;;;;62.00;33.57;;;5.10;99.90;;;;;;5016990;28;20212;-93
2022/01/16 11:43:39;;;;;;;59.13;32.27;;;5.20;99.90;;;;;;5016919;28;20212;-93
2022/01/16 11:46:17;;;;;;;58.97;32.83;;;5.20;99.90;;;;;;5018155;28;20189;-93
2022/01/16 11:49:01;;;;;;;62.90;32.90;;;5.20;99.90;;;;;;5017825;28;20197;-93
2022/01/16 11:51:33;;;;;;;63.77;31.63;;;5.30;99.90;;;;;;5019077;28;20635;-93
2022/01/16 11:53:58;;;;;;;67.70;32.40;;;5.30;99.90;;;;;;5017157;28;20177;-93
2022/01/16 11:56:39;;;;;;;61.67;33.07;;;5.40;99.90;;;;;;5017923;28;20188;-93
2022/01/16 11:59:28;;;;;;;62.80;32.60;;;5.40;99.90;;;;;;5019653;28;20184;-93
2022/01/16 12:02:16;;;;;;;59.30;31.43;;;5.40;99.90;;;;;;5047941;22;20232;-79
2022/01/16 12:04:44;;;;;;;66.03;31.83;;;5.50;99.90;;;;;;5023988;28;20176;-78
2022/01/16 12:07:13;;;;;;;66.37;33.23;;;5.50;99.90;;;;;;5022934;28;20559;-78
2022/01/16 12:12:12;;;;;;;60.43;31.63;;;5.60;99.90;;;;;;5042681;28;20254;-79
2022/01/16 12:15:02;;;;;;;61.60;32.03;;;5.70;99.90;;;;;;5039855;28;20184;-79
2022/01/16 12:17:51;;;;;;;57.93;31.03;;;5.70;99.90;;;;;;5042330;28;20282;-79
2022/01/16 12:20:23;;;;;;;56.80;29.30;;;5.70;99.90;;;;;;5017734;28;20729;-79
2022/01/16 12:23:04;;;;;;;55.10;29.20;;;5.70;99.90;;;;;;5037216;28;20267;-79
2022/01/16 12:25:36;;;;;;;58.03;29.63;;;5.80;99.90;;;;;;5036927;28;20662;-79
2022/01/16 12:28:05;;;;;;;51.57;29.00;;;5.70;99.90;;;;;;5038397;28;20212;-79
2022/01/16 12:30:51;;;;;;;53.97;28.57;;;5.70;99.90;;;;;;5018867;28;20195;-79
2022/01/16 12:33:36;;;;;;;57.37;29.77;;;5.70;99.90;;;;;;5019546;28;20177;-79
2022/01/16 12:36:11;;;;;;;54.43;28.73;;;5.80;99.90;;;;;;5036875;28;20180;-79
2022/01/16 12:39:12;;;;;;;49.63;27.00;;;5.80;99.90;;;;;;5019039;28;20257;-79
2022/01/16 12:41:45;;;;;;;48.97;26.63;;;5.90;99.90;;;;;;4940687;29;20285;-79
2022/01/16 12:44:15;;;;;;;50.53;26.50;;;5.80;99.90;;;;;;5024479;28;20208;-79
2022/01/16 12:46:44;;;;;;;47.47;26.70;;;5.90;99.90;;;;;;5039703;28;20172;-79
2022/01/16 12:49:23;;;;;;;45.53;25.43;;;5.90;99.90;;;;;;5040804;28;20173;-79
2022/01/16 12:51:51;;;;;;;44.23;24.00;;;5.90;99.90;;;;;;5041120;28;20194;-79
2022/01/16 12:54:22;;;;;;;44.17;23.93;;;5.90;99.90;;;;;;5041307;28;20184;-79
2022/01/16 12:56:50;;;;;;;47.77;24.50;;;5.80;99.90;;;;;;5022655;28;20172;-80
2022/01/16 12:59:19;;;;;;;42.23;22.67;;;5.80;99.90;;;;;;5041269;28;20172;-79
2022/01/16 13:01:53;;;;;;;44.03;23.97;;;5.70;99.90;;;;;;5040815;28;20203;-79
2022/01/16 13:04:29;;;;;;;47.00;24.33;;;5.70;99.90;;;;;;5040268;28;20203;-79
2022/01/16 13:06:56;;;;;;;41.03;23.73;;;5.60;99.90;;;;;;5021548;28;20180;-78
2022/01/16 13:09:22;;;;;;;42.77;24.07;;;5.60;99.90;;;;;;5023353;28;20183;-79
2022/01/16 13:11:50;;;;;;;48.60;25.33;;;5.60;99.90;;;;;;5040111;28;20180;-79
2022/01/16 13:14:18;;;;;;;41.77;23.93;;;5.60;99.90;;;;;;5041740;28;20172;-79
2022/01/16 13:16:49;;;;;;;46.17;24.33;;;5.60;99.90;;;;;;5024018;28;20674;-79
2022/01/16 13:19:23;;;;;;;38.63;23.63;;;5.60;99.90;;;;;;5024128;28;20180;-78
2022/01/16 13:21:58;;;;;;;41.93;23.60;;;5.60;99.90;;;;;;5042721;28;20182;-78
2022/01/16 13:24:28;;;;;;;39.27;23.10;;;5.60;99.90;;;;;;5024882;28;20172;-78
2022/01/16 13:26:55;;;;;;;38.57;23.00;;;5.60;99.90;;;;;;5042663;28;20232;-78
2022/01/16 13:29:21;;;;;;;41.40;23.37;;;5.60;99.90;;;;;;5043563;28;20692;-78